Latest Weather Observations for Sydney Harbour

IDN60901

Issued at 2:21 pm EST Sunday 23 June 2024 (issued every 10 minutes, with the page automatically refreshed every 10 minutes)

About weather observations | Map of Sydney area stations | Latest observations for Sydney area | Other Formats
Station Details ID: 066196 Name: WEDDING CAKE WEST Lat: -33.84 Lon: 151.26 Height: 6.0 m
Data from the previous 72 hours. | See also: Recent months at Sydney Harbour
Date/Time
EST
Temp
°C
App
Temp
°C
Dew
Point
°C
Rel
Hum
%
Delta-T
°C
Wind Press
QNH
hPa
Press
MSL
hPa
Rain since
9am
mm
Dir  Spd
km/h
Gust
km/h
Spd
kts
Gust
kts
23/02:00pm 14.0 - - - - W 15 20 8 11 - - -
23/01:30pm 13.8 - - - - SW 15 19 8 10 - - -
23/01:00pm 14.5 - - - - SW 33 41 18 22 - - -
23/12:30pm 14.5 - - - - SW 30 35 16 19 - - -
23/12:00pm 14.7 - - - - SW 32 39 17 21 - - -
23/11:30am 14.9 - - - - SW 26 32 14 17 - - -
23/11:00am 14.6 - - - - SW 24 30 13 16 - - -
23/10:30am 13.9 - - - - WSW 28 33 15 18 - - -
23/10:00am 13.1 - - - - WSW 20 26 11 14 - - -
23/09:30am 12.5 - - - - W 19 26 10 14 - - -
23/09:00am 12.3 - - - - W 20 26 11 14 - - -
23/08:30am 12.0 - - - - W 22 26 12 14 - - -
23/08:00am 11.7 - - - - W 24 30 13 16 - - -
23/07:30am 11.5 - - - - W 19 24 10 13 - - -
23/07:00am 11.7 - - - - W 22 30 12 16 - - -
23/06:30am 11.6 - - - - W 20 24 11 13 - - -
23/06:00am 11.5 - - - - W 22 28 12 15 - - -
23/05:30am 11.5 - - - - W 22 28 12 15 - - -
23/05:00am 11.6 - - - - W 19 24 10 13 - - -
23/04:30am 12.0 - - - - WSW 24 32 13 17 - - -
23/04:00am 11.7 - - - - W 20 28 11 15 - - -
23/03:30am 11.5 - - - - W 22 26 12 14 - - -
23/03:00am 11.8 - - - - WSW 24 32 13 17 - - -
23/02:30am 12.1 - - - - W 22 30 12 16 - - -
23/02:00am 12.5 - - - - WSW 30 35 16 19 - - -
23/01:30am 11.7 - - - - W 22 28 12 15 - - -
23/01:00am 12.2 - - - - W 28 33 15 18 - - -
23/12:30am 12.4 - - - - W 30 37 16 20 - - -
23/12:00am 11.9 - - - - W 28 37 15 20 - - -
 
Date/Time
EST
Temp
°C
App
Temp
°C
Dew
Point
°C
Rel
Hum
%
Delta-T
°C
Wind Press
QNH
hPa
Press
MSL
hPa
Rain since
9am
mm
Dir  Spd
km/h
Gust
km/h
Spd
kts
Gust
kts
22/11:30pm 11.9 - - - - W 22 28 12 15 - - -
22/11:00pm 12.4 - - - - W 22 28 12 15 - - -
22/10:30pm 12.4 - - - - W 20 28 11 15 - - -
22/10:00pm 12.4 - - - - WSW 26 33 14 18 - - -
22/09:30pm 12.8 - - - - W 24 32 13 17 - - -
22/09:00pm 12.7 - - - - W 24 32 13 17 - - -
22/08:30pm 12.8 - - - - W 22 30 12 16 - - -
22/08:00pm 12.9 - - - - WSW 32 39 17 21 - - -
22/07:30pm 13.1 - - - - WSW 28 35 15 19 - - -
22/07:00pm 13.0 - - - - SW 35 43 19 23 - - -
22/06:30pm 13.2 - - - - WSW 32 41 17 22 - - -
22/06:00pm 13.3 - - - - SW 30 37 16 20 - - -
22/05:30pm 13.3 - - - - SW 26 37 14 20 - - -
22/05:00pm 13.9 - - - - SW 35 46 19 25 - - -
22/04:30pm 13.3 - - - - SW 37 56 20 30 - - -
22/04:29pm 13.1 - - - - SW 37 56 20 30 - - -
22/04:00pm 12.9 - - - - WSW 30 41 16 22 - - -
22/03:30pm 13.1 - - - - SW 28 33 15 18 - - -
22/03:29pm 13.0 - - - - SW 28 33 15 18 - - -
22/03:00pm 11.7 - - - - N 11 15 6 8 - - -
22/02:30pm 12.0 - - - - NNE 9 13 5 7 - - -
22/02:00pm 11.7 - - - - WSW 13 19 7 10 - - -
22/01:30pm 12.1 - - - - WSW 20 26 11 14 - - -
22/01:00pm 12.5 - - - - SW 33 37 18 20 - - -
22/12:30pm 12.1 - - - - WSW 32 39 17 21 - - -
22/12:00pm 11.5 - - - - W 17 24 9 13 - - -
22/11:30am 11.3 - - - - WSW 24 30 13 16 - - -
22/11:00am 11.0 - - - - W 22 30 12 16 - - -
22/10:30am 11.8 - - - - WSW 26 33 14 18 - - -
22/10:00am 11.5 - - - - WSW 26 30 14 16 - - -
22/09:30am 11.4 - - - - W 20 30 11 16 - - -
22/09:00am 11.1 - - - - W 20 26 11 14 - - -
22/08:30am 10.7 - - - - W 22 30 12 16 - - -
22/08:00am 10.5 - - - - W 24 32 13 17 - - -
22/07:30am 10.5 - - - - W 26 35 14 19 - - -
22/07:00am 11.1 - - - - WSW 32 41 17 22 - - -
22/06:30am 10.7 - - - - WSW 28 35 15 19 - - -
22/06:00am 10.7 - - - - WSW 28 35 15 19 - - -
22/05:30am 11.0 - - - - WSW 26 35 14 19 - - -
22/05:00am 11.5 - - - - WSW 33 46 18 25 - - -
22/04:30am 11.2 - - - - WSW 28 35 15 19 - - -
22/04:00am 12.0 - - - - WSW 28 35 15 19 - - -
22/03:30am 12.0 - - - - SW 37 44 20 24 - - -
22/03:00am 11.9 - - - - WSW 28 39 15 21 - - -
22/02:30am 11.1 - - - - W 20 26 11 14 - - -
22/02:00am 11.0 - - - - W 20 30 11 16 - - -
22/01:30am 12.1 - - - - WSW 22 28 12 15 - - -
22/01:00am 11.9 - - - - W 22 33 12 18 - - -
22/12:30am 12.1 - - - - W 24 32 13 17 - - -
22/12:00am 12.2 - - - - W 24 32 13 17 - - -
 
Date/Time
EST
Temp
°C
App
Temp
°C
Dew
Point
°C
Rel
Hum
%
Delta-T
°C
Wind Press
QNH
hPa
Press
MSL
hPa
Rain since
9am
mm
Dir  Spd
km/h
Gust
km/h
Spd
kts
Gust
kts
21/11:30pm 12.0 - - - - W 20 26 11 14 - - -
21/11:00pm 12.4 - - - - W 24 28 13 15 - - -
21/10:30pm 12.6 - - - - W 22 26 12 14 - - -
21/10:00pm 12.8 - - - - W 24 30 13 16 - - -
21/09:30pm 13.0 - - - - W 22 26 12 14 - - -
21/09:00pm 13.6 - - - - W 20 24 11 13 - - -
21/08:30pm 14.3 - - - - WSW 19 24 10 13 - - -
21/08:00pm 14.7 - - - - WSW 22 26 12 14 - - -
21/07:30pm 14.7 - - - - SW 19 24 10 13 - - -
21/07:00pm 14.7 - - - - SSW 20 24 11 13 - - -
21/06:30pm 15.4 - - - - SW 17 20 9 11 - - -
21/06:00pm 15.4 - - - - SW 15 17 8 9 - - -
21/05:30pm 15.5 - - - - SSW 17 22 9 12 - - -
21/05:00pm 15.7 - - - - SSW 19 24 10 13 - - -
21/04:30pm 15.8 - - - - S 20 24 11 13 - - -
21/04:00pm 16.3 - - - - S 19 24 10 13 - - -
21/03:30pm 15.8 - - - - SSE 17 24 9 13 - - -
21/03:00pm 16.0 - - - - S 17 20 9 11 - - -
21/02:30pm 16.1 - - - - S 15 20 8 11 - - -
21/02:00pm 16.5 - - - - SSW 19 24 10 13 - - -
21/01:30pm 16.3 - - - - SSW 20 26 11 14 - - -
21/01:00pm 16.3 - - - - SW 19 24 10 13 - - -
21/12:30pm 16.3 - - - - SW 22 26 12 14 - - -
21/12:00pm 15.7 - - - - W 17 20 9 11 - - -
21/11:30am 14.9 - - - - WSW 17 20 9 11 - - -
21/11:00am 13.7 - - - - WSW 19 22 10 12 - - -
21/10:30am 13.0 - - - - WSW 20 26 11 14 - - -
21/10:00am 12.5 - - - - W 24 32 13 17 - - -
21/09:30am 11.9 - - - - W 24 30 13 16 - - -
21/09:00am 11.1 - - - - W 24 33 13 18 - - -
21/08:30am 10.8 - - - - WSW 24 30 13 16 - - -
21/08:00am 10.9 - - - - WSW 17 20 9 11 - - -
21/07:30am 10.7 - - - - W 9 15 5 8 - - -
21/07:00am 10.4 - - - - W 17 20 9 11 - - -
21/06:30am 11.1 - - - - W 19 22 10 12 - - -
21/06:00am 10.8 - - - - WNW 17 20 9 11 - - -
21/05:30am 10.3 - - - - W 17 24 9 13 - - -
21/05:00am 10.3 - - - - W 20 26 11 14 - - -
21/04:30am 10.2 - - - - W 15 20 8 11 - - -
21/04:00am 10.6 - - - - W 13 17 7 9 - - -
21/03:30am 10.8 - - - - WSW 9 13 5 7 - - -
21/03:00am 10.9 - - - - WSW 9 11 5 6 - - -
21/02:30am 10.9 - - - - WSW 13 15 7 8 - - -
21/02:00am 11.7 - - - - WSW 7 11 4 6 - - -
21/01:30am 12.0 - - - - WSW 7 9 4 5 - - -
21/01:00am 12.8 - - - - W 6 11 3 6 - - -
21/12:30am 12.7 - - - - WSW 7 9 4 5 - - -
21/12:00am 12.6 - - - - W 13 15 7 8 - - -
 
Date/Time
EST
Temp
°C
App
Temp
°C
Dew
Point
°C
Rel
Hum
%
Delta-T
°C
Wind Press
QNH
hPa
Press
MSL
hPa
Rain since
9am
mm
Dir  Spd
km/h
Gust
km/h
Spd
kts
Gust
kts
20/11:30pm 13.6 - - - - WSW 9 11 5 6 - - -
20/11:00pm 13.4 - - - - N 7 11 4 6 - - -
20/10:30pm 14.2 - - - - W 7 9 4 5 - - -
20/10:00pm 14.5 - - - - CALM 0 0 0 0 - - -
20/09:30pm 14.3 - - - - W 4 6 2 3 - - -
20/09:00pm 14.1 - - - - W 2 7 1 4 - - -
20/08:30pm 14.6 - - - - NNW 6 7 3 4 - - -
20/08:00pm 14.6 - - - - N 9 11 5 6 - - -
20/07:30pm 14.7 - - - - N 9 11 5 6 - - -
20/07:00pm 14.7 - - - - N 9 11 5 6 - - -
20/06:30pm 14.7 - - - - N 9 13 5 7 - - -
20/06:00pm 15.1 - - - - N 9 13 5 7 - - -
20/05:30pm 15.9 - - - - ENE 11 15 6 8 - - -
20/05:00pm 15.6 - - - - ENE 9 13 5 7 - - -
20/04:30pm 15.6 - - - - NE 13 15 7 8 - - -
20/04:00pm 15.8 - - - - NE 11 13 6 7 - - -
20/03:30pm 15.8 - - - - ENE 7 9 4 5 - - -
20/03:00pm 15.6 - - - - NE 9 11 5 6 - - -
20/02:30pm 17.0 - - - - S 6 7 3 4 - - -

Latest Capital City Observations: Canberra | Sydney | Melbourne | Brisbane | Adelaide | Perth | Hobart | Darwin

Other formats

Comma delimited format used in spreadsheet applications
http://www.bom.gov.au/fwo/IDN60901/IDN60901.95766.axf

JavaScript Object Notation format (JSON) in row-major order
http://www.bom.gov.au/fwo/IDN60901/IDN60901.95766.json

Data quality

Most of these data are generated automatically and are frequently updated. Quality checks on data are not normally performed. It is possible for incorrect values to appear. Refer to information at About Latest Weather Observations and please check the disclaimer before using these data.